sensor_id;sensor_type;location;lat;lon;timestamp;temperature;humidity
7516;DHT22;3799;47.184;8.538;2023-07-13T00:00:29;18.70;99.90
7516;DHT22;3799;47.184;8.538;2023-07-13T00:02:57;18.60;99.90
7516;DHT22;3799;47.184;8.538;2023-07-13T00:05:24;18.60;99.90
7516;DHT22;3799;47.184;8.538;2023-07-13T00:07:52;18.80;99.90
7516;DHT22;3799;47.184;8.538;2023-07-13T00:10:19;18.50;99.90
7516;DHT22;3799;47.184;8.538;2023-07-13T00:12:48;18.70;99.90
7516;DHT22;3799;47.184;8.538;2023-07-13T00:15:21;18.80;99.90
7516;DHT22;3799;47.184;8.538;2023-07-13T00:17:54;18.80;99.90
7516;DHT22;3799;47.184;8.538;2023-07-13T00:20:23;18.40;99.90
7516;DHT22;3799;47.184;8.538;2023-07-13T00:22:52;18.70;99.90
7516;DHT22;3799;47.184;8.538;2023-07-13T00:25:25;18.80;99.90
7516;DHT22;3799;47.184;8.538;2023-07-13T00:27:55;18.90;99.90
7516;DHT22;3799;47.184;8.538;2023-07-13T00:30:22;18.60;99.90
7516;DHT22;3799;47.184;8.538;2023-07-13T00:32:50;18.90;99.90
7516;DHT22;3799;47.184;8.538;2023-07-13T00:35:34;18.80;99.90
7516;DHT22;3799;47.184;8.538;2023-07-13T00:38:01;18.70;99.90
7516;DHT22;3799;47.184;8.538;2023-07-13T00:40:28;18.50;99.90
7516;DHT22;3799;47.184;8.538;2023-07-13T00:42:58;18.70;99.90
7516;DHT22;3799;47.184;8.538;2023-07-13T00:47:54;19.00;99.90
7516;DHT22;3799;47.184;8.538;2023-07-13T00:50:22;18.90;99.90
7516;DHT22;3799;47.184;8.538;2023-07-13T00:52:53;19.00;99.90
7516;DHT22;3799;47.184;8.538;2023-07-13T00:55:22;19.10;99.90
7516;DHT22;3799;47.184;8.538;2023-07-13T00:57:49;18.80;99.90
7516;DHT22;3799;47.184;8.538;2023-07-13T01:00:17;19.10;99.90
7516;DHT22;3799;47.184;8.538;2023-07-13T01:02:48;18.90;99.90
7516;DHT22;3799;47.184;8.538;2023-07-13T01:05:19;19.10;99.90
7516;DHT22;3799;47.184;8.538;2023-07-13T01:07:48;18.70;99.90
7516;DHT22;3799;47.184;8.538;2023-07-13T01:10:16;18.70;99.90
7516;DHT22;3799;47.184;8.538;2023-07-13T01:12:44;18.60;99.90
7516;DHT22;3799;47.184;8.538;2023-07-13T01:18:10;18.50;99.90
7516;DHT22;3799;47.184;8.538;2023-07-13T01:20:39;18.50;99.90
7516;DHT22;3799;47.184;8.538;2023-07-13T01:23:09;18.60;99.90
7516;DHT22;3799;47.184;8.538;2023-07-13T01:25:37;18.40;99.90
7516;DHT22;3799;47.184;8.538;2023-07-13T01:28:07;18.60;99.90
7516;DHT22;3799;47.184;8.538;2023-07-13T01:30:37;18.50;99.90
7516;DHT22;3799;47.184;8.538;2023-07-13T01:33:08;18.80;99.90
7516;DHT22;3799;47.184;8.538;2023-07-13T01:35:36;18.80;99.90
7516;DHT22;3799;47.184;8.538;2023-07-13T01:38:04;18.80;99.90
7516;DHT22;3799;47.184;8.538;2023-07-13T01:40:32;18.80;99.90
7516;DHT22;3799;47.184;8.538;2023-07-13T01:43:00;18.80;99.90
7516;DHT22;3799;47.184;8.538;2023-07-13T01:45:28;18.70;99.90
7516;DHT22;3799;47.184;8.538;2023-07-13T01:47:55;18.90;99.90
7516;DHT22;3799;47.184;8.538;2023-07-13T01:50:22;18.90;99.90
7516;DHT22;3799;47.184;8.538;2023-07-13T01:52:50;18.60;99.90
7516;DHT22;3799;47.184;8.538;2023-07-13T01:55:17;19.00;99.90
7516;DHT22;3799;47.184;8.538;2023-07-13T01:57:44;19.00;99.90
7516;DHT22;3799;47.184;8.538;2023-07-13T02:00:12;18.90;99.90
7516;DHT22;3799;47.184;8.538;2023-07-13T02:02:40;19.10;99.90
7516;DHT22;3799;47.184;8.538;2023-07-13T02:05:12;18.90;99.90
7516;DHT22;3799;47.184;8.538;2023-07-13T02:07:41;18.80;99.90
7516;DHT22;3799;47.184;8.538;2023-07-13T02:10:09;19.10;99.90
7516;DHT22;3799;47.184;8.538;2023-07-13T02:12:38;19.00;99.90
7516;DHT22;3799;47.184;8.538;2023-07-13T02:15:06;18.80;99.90
7516;DHT22;3799;47.184;8.538;2023-07-13T02:17:35;19.10;99.90
7516;DHT22;3799;47.184;8.538;2023-07-13T02:20:04;19.00;99.90
7516;DHT22;3799;47.184;8.538;2023-07-13T02:22:32;18.80;99.90
7516;DHT22;3799;47.184;8.538;2023-07-13T02:24:59;18.90;99.90
7516;DHT22;3799;47.184;8.538;2023-07-13T02:27:26;18.50;99.90
7516;DHT22;3799;47.184;8.538;2023-07-13T02:29:54;18.80;99.90
7516;DHT22;3799;47.184;8.538;2023-07-13T02:32:21;18.80;99.90
7516;DHT22;3799;47.184;8.538;2023-07-13T02:34:48;18.60;99.90
7516;DHT22;3799;47.184;8.538;2023-07-13T02:37:15;18.70;99.90
7516;DHT22;3799;47.184;8.538;2023-07-13T02:39:43;18.70;99.90
7516;DHT22;3799;47.184;8.538;2023-07-13T02:42:10;18.50;99.90
7516;DHT22;3799;47.184;8.538;2023-07-13T02:44:37;18.70;99.90
7516;DHT22;3799;47.184;8.538;2023-07-13T02:47:05;18.60;99.90
7516;DHT22;3799;47.184;8.538;2023-07-13T02:49:32;18.90;99.90
7516;DHT22;3799;47.184;8.538;2023-07-13T02:51:59;18.70;99.90
7516;DHT22;3799;47.184;8.538;2023-07-13T02:54:26;18.90;99.90
7516;DHT22;3799;47.184;8.538;2023-07-13T02:56:53;18.80;99.90
7516;DHT22;3799;47.184;8.538;2023-07-13T02:59:21;18.70;99.90
7516;DHT22;3799;47.184;8.538;2023-07-13T03:01:48;18.80;99.90
7516;DHT22;3799;47.184;8.538;2023-07-13T03:04:15;18.80;99.90
7516;DHT22;3799;47.184;8.538;2023-07-13T03:06:46;19.00;99.90
7516;DHT22;3799;47.184;8.538;2023-07-13T03:09:14;19.10;99.90
7516;DHT22;3799;47.184;8.538;2023-07-13T03:11:41;18.90;99.90
7516;DHT22;3799;47.184;8.538;2023-07-13T03:14:09;18.90;99.90
7516;DHT22;3799;47.184;8.538;2023-07-13T03:16:36;18.70;99.90
7516;DHT22;3799;47.184;8.538;2023-07-13T03:19:03;18.80;99.90
7516;DHT22;3799;47.184;8.538;2023-07-13T03:21:31;19.10;99.90
7516;DHT22;3799;47.184;8.538;2023-07-13T03:23:58;18.80;99.90
7516;DHT22;3799;47.184;8.538;2023-07-13T03:26:25;18.90;99.90
7516;DHT22;3799;47.184;8.538;2023-07-13T03:28:52;19.10;99.90
7516;DHT22;3799;47.184;8.538;2023-07-13T03:31:22;19.20;99.90
7516;DHT22;3799;47.184;8.538;2023-07-13T03:33:50;19.10;99.90
7516;DHT22;3799;47.184;8.538;2023-07-13T03:36:24;18.90;99.90
7516;DHT22;3799;47.184;8.538;2023-07-13T03:38:55;18.90;99.90
7516;DHT22;3799;47.184;8.538;2023-07-13T03:41:23;18.90;99.90
7516;DHT22;3799;47.184;8.538;2023-07-13T03:43:51;18.90;99.90
7516;DHT22;3799;47.184;8.538;2023-07-13T03:46:18;18.90;99.90
7516;DHT22;3799;47.184;8.538;2023-07-13T03:48:47;18.90;99.90
7516;DHT22;3799;47.184;8.538;2023-07-13T03:51:17;18.80;99.90
7516;DHT22;3799;47.184;8.538;2023-07-13T03:53:46;18.80;99.90
7516;DHT22;3799;47.184;8.538;2023-07-13T03:56:15;18.60;99.90
7516;DHT22;3799;47.184;8.538;2023-07-13T03:58:44;18.70;99.90
7516;DHT22;3799;47.184;8.538;2023-07-13T04:01:13;18.60;99.90
7516;DHT22;3799;47.184;8.538;2023-07-13T04:03:50;18.60;99.90
7516;DHT22;3799;47.184;8.538;2023-07-13T04:06:23;18.50;99.90
7516;DHT22;3799;47.184;8.538;2023-07-13T04:08:59;18.80;99.90
7516;DHT22;3799;47.184;8.538;2023-07-13T04:11:27;18.80;99.90
7516;DHT22;3799;47.184;8.538;2023-07-13T04:13:56;18.80;99.90
7516;DHT22;3799;47.184;8.538;2023-07-13T04:16:24;18.60;99.90
7516;DHT22;3799;47.184;8.538;2023-07-13T04:18:52;19.00;99.90
7516;DHT22;3799;47.184;8.538;2023-07-13T04:21:27;18.80;99.90
7516;DHT22;3799;47.184;8.538;2023-07-13T04:23:55;18.70;99.90
7516;DHT22;3799;47.184;8.538;2023-07-13T04:26:22;18.60;99.90
7516;DHT22;3799;47.184;8.538;2023-07-13T04:28:51;19.00;99.90
7516;DHT22;3799;47.184;8.538;2023-07-13T04:31:19;18.70;99.90
7516;DHT22;3799;47.184;8.538;2023-07-13T04:33:47;18.90;99.90
7516;DHT22;3799;47.184;8.538;2023-07-13T04:36:16;18.80;99.90
7516;DHT22;3799;47.184;8.538;2023-07-13T04:38:43;18.90;99.90
7516;DHT22;3799;47.184;8.538;2023-07-13T04:41:12;18.90;99.90
7516;DHT22;3799;47.184;8.538;2023-07-13T04:43:39;19.30;99.90
7516;DHT22;3799;47.184;8.538;2023-07-13T04:46:10;19.70;99.90
7516;DHT22;3799;47.184;8.538;2023-07-13T04:48:39;20.10;99.90
7516;DHT22;3799;47.184;8.538;2023-07-13T04:51:06;20.50;99.90
7516;DHT22;3799;47.184;8.538;2023-07-13T04:53:33;20.40;99.90
7516;DHT22;3799;47.184;8.538;2023-07-13T04:56:02;20.60;99.90
7516;DHT22;3799;47.184;8.538;2023-07-13T04:58:30;20.80;99.90
7516;DHT22;3799;47.184;8.538;2023-07-13T05:01:04;21.00;99.90
7516;DHT22;3799;47.184;8.538;2023-07-13T05:03:32;21.10;99.90
7516;DHT22;3799;47.184;8.538;2023-07-13T05:06:05;21.10;99.90
7516;DHT22;3799;47.184;8.538;2023-07-13T05:08:33;21.10;99.90
7516;DHT22;3799;47.184;8.538;2023-07-13T05:11:01;21.20;99.90
7516;DHT22;3799;47.184;8.538;2023-07-13T05:13:29;21.30;99.90
7516;DHT22;3799;47.184;8.538;2023-07-13T05:15:59;21.40;99.90
7516;DHT22;3799;47.184;8.538;2023-07-13T05:18:27;21.40;99.90
7516;DHT22;3799;47.184;8.538;2023-07-13T05:21:01;21.40;99.90
7516;DHT22;3799;47.184;8.538;2023-07-13T05:23:30;21.30;99.90
7516;DHT22;3799;47.184;8.538;2023-07-13T05:25:57;21.40;99.90
7516;DHT22;3799;47.184;8.538;2023-07-13T05:28:25;21.40;99.90
7516;DHT22;3799;47.184;8.538;2023-07-13T05:30:53;21.40;99.90
7516;DHT22;3799;47.184;8.538;2023-07-13T05:33:24;21.50;99.90
7516;DHT22;3799;47.184;8.538;2023-07-13T05:35:52;21.50;99.90
7516;DHT22;3799;47.184;8.538;2023-07-13T05:38:19;21.50;99.90
7516;DHT22;3799;47.184;8.538;2023-07-13T05:40:47;21.50;99.90
7516;DHT22;3799;47.184;8.538;2023-07-13T05:43:14;21.50;99.90
7516;DHT22;3799;47.184;8.538;2023-07-13T05:45:41;21.40;99.90
7516;DHT22;3799;47.184;8.538;2023-07-13T05:48:08;21.20;99.90
7516;DHT22;3799;47.184;8.538;2023-07-13T05:50:35;21.10;99.90
7516;DHT22;3799;47.184;8.538;2023-07-13T05:53:03;21.10;99.90
7516;DHT22;3799;47.184;8.538;2023-07-13T05:55:30;21.20;99.90
7516;DHT22;3799;47.184;8.538;2023-07-13T05:57:58;21.20;99.90
7516;DHT22;3799;47.184;8.538;2023-07-13T06:00:26;21.30;99.90
7516;DHT22;3799;47.184;8.538;2023-07-13T06:02:54;21.30;99.90
7516;DHT22;3799;47.184;8.538;2023-07-13T06:05:21;21.40;99.90
7516;DHT22;3799;47.184;8.538;2023-07-13T06:07:48;21.40;99.90
7516;DHT22;3799;47.184;8.538;2023-07-13T06:10:16;21.50;99.90
7516;DHT22;3799;47.184;8.538;2023-07-13T06:12:43;21.60;99.90
7516;DHT22;3799;47.184;8.538;2023-07-13T06:15:11;21.60;99.90
7516;DHT22;3799;47.184;8.538;2023-07-13T06:17:38;21.50;99.90
7516;DHT22;3799;47.184;8.538;2023-07-13T06:20:06;21.60;99.90
7516;DHT22;3799;47.184;8.538;2023-07-13T06:22:34;21.60;99.90
7516;DHT22;3799;47.184;8.538;2023-07-13T06:25:01;21.60;99.90
7516;DHT22;3799;47.184;8.538;2023-07-13T06:27:28;21.60;99.90
7516;DHT22;3799;47.184;8.538;2023-07-13T06:29:57;21.60;99.90
7516;DHT22;3799;47.184;8.538;2023-07-13T06:32:24;21.60;99.90
7516;DHT22;3799;47.184;8.538;2023-07-13T06:34:51;21.60;99.90
7516;DHT22;3799;47.184;8.538;2023-07-13T06:37:19;21.60;99.90
7516;DHT22;3799;47.184;8.538;2023-07-13T06:39:47;21.60;99.90
7516;DHT22;3799;47.184;8.538;2023-07-13T06:42:16;21.50;99.90
7516;DHT22;3799;47.184;8.538;2023-07-13T06:44:44;21.50;99.90
7516;DHT22;3799;47.184;8.538;2023-07-13T06:47:11;21.50;99.90
7516;DHT22;3799;47.184;8.538;2023-07-13T06:49:39;21.50;99.90
7516;DHT22;3799;47.184;8.538;2023-07-13T06:52:09;21.50;99.90
7516;DHT22;3799;47.184;8.538;2023-07-13T06:54:37;21.50;99.90
7516;DHT22;3799;47.184;8.538;2023-07-13T06:57:07;21.60;99.90
7516;DHT22;3799;47.184;8.538;2023-07-13T06:59:34;21.50;99.90
7516;DHT22;3799;47.184;8.538;2023-07-13T07:02:02;21.60;99.90
7516;DHT22;3799;47.184;8.538;2023-07-13T07:04:29;21.60;99.90
7516;DHT22;3799;47.184;8.538;2023-07-13T07:06:56;21.60;99.90
7516;DHT22;3799;47.184;8.538;2023-07-13T07:09:25;21.60;99.90
7516;DHT22;3799;47.184;8.538;2023-07-13T07:12:00;21.60;99.90
7516;DHT22;3799;47.184;8.538;2023-07-13T07:14:30;21.70;99.90
7516;DHT22;3799;47.184;8.538;2023-07-13T07:16:57;21.80;99.90
7516;DHT22;3799;47.184;8.538;2023-07-13T07:19:29;21.90;99.90
7516;DHT22;3799;47.184;8.538;2023-07-13T07:21:56;22.00;99.90
7516;DHT22;3799;47.184;8.538;2023-07-13T07:24:23;22.20;99.90
7516;DHT22;3799;47.184;8.538;2023-07-13T07:26:51;22.20;99.90
7516;DHT22;3799;47.184;8.538;2023-07-13T07:29:21;22.30;99.90
7516;DHT22;3799;47.184;8.538;2023-07-13T07:31:52;22.40;99.90
7516;DHT22;3799;47.184;8.538;2023-07-13T07:34:23;22.40;99.90
7516;DHT22;3799;47.184;8.538;2023-07-13T07:36:50;22.60;99.90
7516;DHT22;3799;47.184;8.538;2023-07-13T07:39:23;22.70;99.90
7516;DHT22;3799;47.184;8.538;2023-07-13T07:41:50;22.80;99.90
7516;DHT22;3799;47.184;8.538;2023-07-13T07:44:23;22.70;99.90
7516;DHT22;3799;47.184;8.538;2023-07-13T07:47:01;22.70;99.90
7516;DHT22;3799;47.184;8.538;2023-07-13T07:49:30;22.50;99.90
7516;DHT22;3799;47.184;8.538;2023-07-13T07:51:57;22.30;99.90
7516;DHT22;3799;47.184;8.538;2023-07-13T07:54:24;22.20;99.90
7516;DHT22;3799;47.184;8.538;2023-07-13T07:57:12;22.10;99.90
7516;DHT22;3799;47.184;8.538;2023-07-13T07:59:42;22.10;99.90
7516;DHT22;3799;47.184;8.538;2023-07-13T08:02:12;22.00;99.90
7516;DHT22;3799;47.184;8.538;2023-07-13T08:04:59;22.00;99.90
7516;DHT22;3799;47.184;8.538;2023-07-13T08:07:32;22.10;99.90
7516;DHT22;3799;47.184;8.538;2023-07-13T08:10:00;22.30;99.90
7516;DHT22;3799;47.184;8.538;2023-07-13T08:12:27;22.40;99.90
7516;DHT22;3799;47.184;8.538;2023-07-13T08:14:57;22.50;99.90
7516;DHT22;3799;47.184;8.538;2023-07-13T08:17:25;22.40;99.90
7516;DHT22;3799;47.184;8.538;2023-07-13T08:19:52;22.40;99.90
7516;DHT22;3799;47.184;8.538;2023-07-13T08:22:20;22.50;99.90
7516;DHT22;3799;47.184;8.538;2023-07-13T08:24:48;22.50;99.90
7516;DHT22;3799;47.184;8.538;2023-07-13T08:27:23;22.60;99.90
7516;DHT22;3799;47.184;8.538;2023-07-13T08:29:51;22.60;99.90
7516;DHT22;3799;47.184;8.538;2023-07-13T08:32:21;22.60;99.90
7516;DHT22;3799;47.184;8.538;2023-07-13T08:34:49;22.60;99.90
7516;DHT22;3799;47.184;8.538;2023-07-13T08:37:17;22.70;99.90
7516;DHT22;3799;47.184;8.538;2023-07-13T08:39:44;22.50;99.90
7516;DHT22;3799;47.184;8.538;2023-07-13T08:42:36;22.40;99.90
7516;DHT22;3799;47.184;8.538;2023-07-13T08:53:49;22.00;99.90
7516;DHT22;3799;47.184;8.538;2023-07-13T08:56:25;21.90;99.90
7516;DHT22;3799;47.184;8.538;2023-07-13T08:59:11;21.80;99.90
7516;DHT22;3799;47.184;8.538;2023-07-13T09:01:56;21.80;99.90
7516;DHT22;3799;47.184;8.538;2023-07-13T09:04:39;21.90;99.90
7516;DHT22;3799;47.184;8.538;2023-07-13T09:13:00;22.30;99.90
7516;DHT22;3799;47.184;8.538;2023-07-13T09:15:39;22.40;99.90
7516;DHT22;3799;47.184;8.538;2023-07-13T09:18:41;22.40;99.90
7516;DHT22;3799;47.184;8.538;2023-07-13T09:21:22;22.30;99.90
7516;DHT22;3799;47.184;8.538;2023-07-13T09:23:53;22.20;99.90
7516;DHT22;3799;47.184;8.538;2023-07-13T09:26:24;22.00;99.90
7516;DHT22;3799;47.184;8.538;2023-07-13T09:28:56;22.00;99.90
7516;DHT22;3799;47.184;8.538;2023-07-13T09:31:37;21.80;99.90
7516;DHT22;3799;47.184;8.538;2023-07-13T09:34:11;21.60;99.90
7516;DHT22;3799;47.184;8.538;2023-07-13T09:36:38;21.40;99.90
7516;DHT22;3799;47.184;8.538;2023-07-13T09:44:51;21.00;99.90
7516;DHT22;3799;47.184;8.538;2023-07-13T09:47:28;20.90;99.90
7516;DHT22;3799;47.184;8.538;2023-07-13T09:50:02;20.80;99.90
7516;DHT22;3799;47.184;8.538;2023-07-13T09:52:42;20.90;99.90
7516;DHT22;3799;47.184;8.538;2023-07-13T09:57:57;21.20;99.90
7516;DHT22;3799;47.184;8.538;2023-07-13T10:00:29;21.20;99.90
7516;DHT22;3799;47.184;8.538;2023-07-13T10:03:05;21.20;99.90
7516;DHT22;3799;47.184;8.538;2023-07-13T10:05:41;21.30;99.90
7516;DHT22;3799;47.184;8.538;2023-07-13T10:08:29;21.30;99.90
7516;DHT22;3799;47.184;8.538;2023-07-13T10:11:02;21.30;99.90
7516;DHT22;3799;47.184;8.538;2023-07-13T10:13:41;21.30;99.90
7516;DHT22;3799;47.184;8.538;2023-07-13T10:16:09;21.50;99.90
7516;DHT22;3799;47.184;8.538;2023-07-13T10:18:44;21.50;99.90
7516;DHT22;3799;47.184;8.538;2023-07-13T10:21:28;21.50;99.90
7516;DHT22;3799;47.184;8.538;2023-07-13T10:24:22;21.60;99.90
7516;DHT22;3799;47.184;8.538;2023-07-13T10:29:25;22.00;99.90
7516;DHT22;3799;47.184;8.538;2023-07-13T10:31:54;22.10;99.90
7516;DHT22;3799;47.184;8.538;2023-07-13T10:34:21;22.30;99.90
7516;DHT22;3799;47.184;8.538;2023-07-13T10:36:49;22.40;99.90
7516;DHT22;3799;47.184;8.538;2023-07-13T10:39:30;22.50;99.90
7516;DHT22;3799;47.184;8.538;2023-07-13T10:42:00;22.70;99.90
7516;DHT22;3799;47.184;8.538;2023-07-13T10:44:31;22.70;99.90
7516;DHT22;3799;47.184;8.538;2023-07-13T10:47:05;22.70;99.90
7516;DHT22;3799;47.184;8.538;2023-07-13T10:49:35;22.80;99.90
7516;DHT22;3799;47.184;8.538;2023-07-13T10:52:04;22.80;99.90
7516;DHT22;3799;47.184;8.538;2023-07-13T10:54:32;22.70;99.90
7516;DHT22;3799;47.184;8.538;2023-07-13T10:59:39;22.70;99.90
7516;DHT22;3799;47.184;8.538;2023-07-13T11:04:47;22.80;99.90
7516;DHT22;3799;47.184;8.538;2023-07-13T11:07:22;22.90;99.90
7516;DHT22;3799;47.184;8.538;2023-07-13T11:10:03;23.20;99.90
7516;DHT22;3799;47.184;8.538;2023-07-13T11:12:53;23.50;99.90
7516;DHT22;3799;47.184;8.538;2023-07-13T11:15:32;24.00;99.90
7516;DHT22;3799;47.184;8.538;2023-07-13T11:18:04;24.40;99.90
7516;DHT22;3799;47.184;8.538;2023-07-13T11:20:35;24.80;99.80
7516;DHT22;3799;47.184;8.538;2023-07-13T11:25:39;25.30;95.90
7516;DHT22;3799;47.184;8.538;2023-07-13T11:28:15;25.50;94.70
7516;DHT22;3799;47.184;8.538;2023-07-13T11:33:43;26.00;92.30
7516;DHT22;3799;47.184;8.538;2023-07-13T11:36:13;26.10;90.10
7516;DHT22;3799;47.184;8.538;2023-07-13T11:38:43;26.50;87.70
7516;DHT22;3799;47.184;8.538;2023-07-13T11:41:21;26.70;84.40
7516;DHT22;3799;47.184;8.538;2023-07-13T11:44:01;26.90;80.60
7516;DHT22;3799;47.184;8.538;2023-07-13T11:46:29;27.20;78.80
7516;DHT22;3799;47.184;8.538;2023-07-13T11:48:57;27.40;73.10
7516;DHT22;3799;47.184;8.538;2023-07-13T11:51:28;27.50;71.10
7516;DHT22;3799;47.184;8.538;2023-07-13T11:54:01;27.30;69.20
7516;DHT22;3799;47.184;8.538;2023-07-13T11:56:30;27.10;70.30
7516;DHT22;3799;47.184;8.538;2023-07-13T11:59:04;27.00;70.40
7516;DHT22;3799;47.184;8.538;2023-07-13T12:01:32;26.90;71.50
7516;DHT22;3799;47.184;8.538;2023-07-13T12:04:04;26.80;71.70
7516;DHT22;3799;47.184;8.538;2023-07-13T12:06:36;26.70;71.40
7516;DHT22;3799;47.184;8.538;2023-07-13T12:09:12;26.60;72.60
7516;DHT22;3799;47.184;8.538;2023-07-13T12:11:43;26.70;73.70
7516;DHT22;3799;47.184;8.538;2023-07-13T12:14:17;26.70;72.10
7516;DHT22;3799;47.184;8.538;2023-07-13T12:16:46;26.60;73.90
7516;DHT22;3799;47.184;8.538;2023-07-13T12:19:27;26.50;74.10
7516;DHT22;3799;47.184;8.538;2023-07-13T12:21:59;26.30;72.80
7516;DHT22;3799;47.184;8.538;2023-07-13T12:24:27;26.10;74.90
7516;DHT22;3799;47.184;8.538;2023-07-13T12:26:59;26.10;75.50
7516;DHT22;3799;47.184;8.538;2023-07-13T12:29:32;26.10;76.20
7516;DHT22;3799;47.184;8.538;2023-07-13T12:31:59;26.10;76.30
7516;DHT22;3799;47.184;8.538;2023-07-13T12:34:27;26.00;75.70
7516;DHT22;3799;47.184;8.538;2023-07-13T12:37:09;26.10;77.00
7516;DHT22;3799;47.184;8.538;2023-07-13T12:39:47;26.10;77.70
7516;DHT22;3799;47.184;8.538;2023-07-13T12:42:27;26.30;78.30
7516;DHT22;3799;47.184;8.538;2023-07-13T12:44:59;26.60;77.40
7516;DHT22;3799;47.184;8.538;2023-07-13T12:47:28;27.10;76.00
7516;DHT22;3799;47.184;8.538;2023-07-13T12:50:00;27.70;72.20
7516;DHT22;3799;47.184;8.538;2023-07-13T12:52:34;27.80;68.20
7516;DHT22;3799;47.184;8.538;2023-07-13T12:55:17;28.00;65.50
7516;DHT22;3799;47.184;8.538;2023-07-13T12:57:58;28.00;65.30
7516;DHT22;3799;47.184;8.538;2023-07-13T13:00:30;28.30;65.50
7516;DHT22;3799;47.184;8.538;2023-07-13T13:06:05;29.10;60.30
7516;DHT22;3799;47.184;8.538;2023-07-13T13:08:35;29.30;59.10
7516;DHT22;3799;47.184;8.538;2023-07-13T13:11:02;29.50;57.80
7516;DHT22;3799;47.184;8.538;2023-07-13T13:13:30;29.60;57.20
7516;DHT22;3799;47.184;8.538;2023-07-13T13:18:44;29.50;57.30
7516;DHT22;3799;47.184;8.538;2023-07-13T13:21:12;29.80;56.70
7516;DHT22;3799;47.184;8.538;2023-07-13T13:23:39;29.90;55.30
7516;DHT22;3799;47.184;8.538;2023-07-13T13:26:12;30.10;54.60
7516;DHT22;3799;47.184;8.538;2023-07-13T13:28:39;30.20;53.60
7516;DHT22;3799;47.184;8.538;2023-07-13T13:31:11;30.10;52.90
7516;DHT22;3799;47.184;8.538;2023-07-13T13:33:41;30.30;53.30
7516;DHT22;3799;47.184;8.538;2023-07-13T13:36:19;30.60;52.50
7516;DHT22;3799;47.184;8.538;2023-07-13T13:38:48;30.50;52.00
7516;DHT22;3799;47.184;8.538;2023-07-13T13:41:16;30.10;52.30
7516;DHT22;3799;47.184;8.538;2023-07-13T13:43:43;29.70;52.50
7516;DHT22;3799;47.184;8.538;2023-07-13T13:46:18;29.40;52.40
7516;DHT22;3799;47.184;8.538;2023-07-13T13:48:46;29.50;52.60
7516;DHT22;3799;47.184;8.538;2023-07-13T13:51:19;29.80;52.10
7516;DHT22;3799;47.184;8.538;2023-07-13T13:53:47;30.10;51.10
7516;DHT22;3799;47.184;8.538;2023-07-13T13:56:16;30.40;50.80
7516;DHT22;3799;47.184;8.538;2023-07-13T13:58:44;30.50;50.00
7516;DHT22;3799;47.184;8.538;2023-07-13T14:01:17;30.10;49.60
7516;DHT22;3799;47.184;8.538;2023-07-13T14:03:45;29.70;50.30
7516;DHT22;3799;47.184;8.538;2023-07-13T14:06:13;29.60;51.10
7516;DHT22;3799;47.184;8.538;2023-07-13T14:08:41;29.60;50.90
7516;DHT22;3799;47.184;8.538;2023-07-13T14:11:16;29.80;50.40
7516;DHT22;3799;47.184;8.538;2023-07-13T14:13:48;30.00;49.50
7516;DHT22;3799;47.184;8.538;2023-07-13T14:16:19;30.20;49.70
7516;DHT22;3799;47.184;8.538;2023-07-13T14:18:48;30.10;49.30
7516;DHT22;3799;47.184;8.538;2023-07-13T14:21:17;29.70;49.80
7516;DHT22;3799;47.184;8.538;2023-07-13T14:23:46;29.70;50.20
7516;DHT22;3799;47.184;8.538;2023-07-13T14:26:24;29.80;49.30
7516;DHT22;3799;47.184;8.538;2023-07-13T14:28:56;29.50;49.30
7516;DHT22;3799;47.184;8.538;2023-07-13T14:31:26;29.20;49.60
7516;DHT22;3799;47.184;8.538;2023-07-13T14:33:57;28.70;49.80
7516;DHT22;3799;47.184;8.538;2023-07-13T14:36:33;28.30;50.50
7516;DHT22;3799;47.184;8.538;2023-07-13T14:39:10;27.90;51.20
7516;DHT22;3799;47.184;8.538;2023-07-13T14:41:38;27.60;52.20
7516;DHT22;3799;47.184;8.538;2023-07-13T14:44:14;27.30;52.60
7516;DHT22;3799;47.184;8.538;2023-07-13T14:46:43;27.20;53.00
7516;DHT22;3799;47.184;8.538;2023-07-13T14:51:59;27.60;53.80
7516;DHT22;3799;47.184;8.538;2023-07-13T14:54:26;28.20;53.20
7516;DHT22;3799;47.184;8.538;2023-07-13T14:56:54;28.80;52.00
7516;DHT22;3799;47.184;8.538;2023-07-13T14:59:21;29.30;51.80
7516;DHT22;3799;47.184;8.538;2023-07-13T15:01:50;29.70;51.50
7516;DHT22;3799;47.184;8.538;2023-07-13T15:04:18;29.90;50.90
7516;DHT22;3799;47.184;8.538;2023-07-13T15:07:01;30.00;50.90
7516;DHT22;3799;47.184;8.538;2023-07-13T15:09:29;30.20;51.10
7516;DHT22;3799;47.184;8.538;2023-07-13T15:11:57;30.30;50.90
7516;DHT22;3799;47.184;8.538;2023-07-13T15:14:26;30.30;50.70
7516;DHT22;3799;47.184;8.538;2023-07-13T15:16:58;30.20;51.10
7516;DHT22;3799;47.184;8.538;2023-07-13T15:19:27;30.40;51.20
7516;DHT22;3799;47.184;8.538;2023-07-13T15:21:55;30.50;50.60
7516;DHT22;3799;47.184;8.538;2023-07-13T15:24:24;30.60;50.20
7516;DHT22;3799;47.184;8.538;2023-07-13T15:26:52;30.70;49.70
7516;DHT22;3799;47.184;8.538;2023-07-13T15:29:20;30.30;49.40
7516;DHT22;3799;47.184;8.538;2023-07-13T15:31:48;29.80;50.00
7516;DHT22;3799;47.184;8.538;2023-07-13T15:34:23;29.20;50.70
7516;DHT22;3799;47.184;8.538;2023-07-13T15:36:52;28.60;51.60
7516;DHT22;3799;47.184;8.538;2023-07-13T15:39:20;28.10;52.10
7516;DHT22;3799;47.184;8.538;2023-07-13T15:41:48;27.70;52.80
7516;DHT22;3799;47.184;8.538;2023-07-13T15:44:29;27.30;53.30
7516;DHT22;3799;47.184;8.538;2023-07-13T15:46:57;27.00;53.60
7516;DHT22;3799;47.184;8.538;2023-07-13T15:49:27;26.80;53.90
7516;DHT22;3799;47.184;8.538;2023-07-13T15:51:55;26.60;54.40
7516;DHT22;3799;47.184;8.538;2023-07-13T15:54:23;26.40;54.70
7516;DHT22;3799;47.184;8.538;2023-07-13T15:56:53;26.30;54.90
7516;DHT22;3799;47.184;8.538;2023-07-13T15:59:21;26.30;55.10
7516;DHT22;3799;47.184;8.538;2023-07-13T16:01:48;26.20;55.30
7516;DHT22;3799;47.184;8.538;2023-07-13T16:04:16;26.30;55.80
7516;DHT22;3799;47.184;8.538;2023-07-13T16:07:03;26.80;55.80
7516;DHT22;3799;47.184;8.538;2023-07-13T16:09:31;27.50;55.20
7516;DHT22;3799;47.184;8.538;2023-07-13T16:11:58;27.90;54.50
7516;DHT22;3799;47.184;8.538;2023-07-13T16:14:25;28.20;55.40
7516;DHT22;3799;47.184;8.538;2023-07-13T16:16:53;28.30;54.40
7516;DHT22;3799;47.184;8.538;2023-07-13T16:19:23;28.30;54.50
7516;DHT22;3799;47.184;8.538;2023-07-13T16:21:56;28.20;54.80
7516;DHT22;3799;47.184;8.538;2023-07-13T16:24:27;27.90;54.50
7516;DHT22;3799;47.184;8.538;2023-07-13T16:26:54;27.60;54.30
7516;DHT22;3799;47.184;8.538;2023-07-13T16:29:26;27.50;54.60
7516;DHT22;3799;47.184;8.538;2023-07-13T16:32:10;27.30;55.40
7516;DHT22;3799;47.184;8.538;2023-07-13T16:34:41;27.30;56.50
7516;DHT22;3799;47.184;8.538;2023-07-13T16:37:25;27.40;56.60
7516;DHT22;3799;47.184;8.538;2023-07-13T16:39:55;27.30;56.80
7516;DHT22;3799;47.184;8.538;2023-07-13T16:42:25;27.10;57.10
7516;DHT22;3799;47.184;8.538;2023-07-13T16:44:52;26.90;57.80
7516;DHT22;3799;47.184;8.538;2023-07-13T16:47:22;26.80;58.20
7516;DHT22;3799;47.184;8.538;2023-07-13T16:49:50;26.60;58.50
7516;DHT22;3799;47.184;8.538;2023-07-13T16:52:18;26.50;58.80
7516;DHT22;3799;47.184;8.538;2023-07-13T16:54:49;26.40;59.50
7516;DHT22;3799;47.184;8.538;2023-07-13T16:57:22;26.40;60.20
7516;DHT22;3799;47.184;8.538;2023-07-13T16:59:53;26.40;62.60
7516;DHT22;3799;47.184;8.538;2023-07-13T17:04:50;26.40;66.30
7516;DHT22;3799;47.184;8.538;2023-07-13T17:07:18;26.30;67.70
7516;DHT22;3799;47.184;8.538;2023-07-13T17:09:45;26.10;69.40
7516;DHT22;3799;47.184;8.538;2023-07-13T17:12:13;25.90;72.00
7516;DHT22;3799;47.184;8.538;2023-07-13T17:14:43;25.70;72.30